sensor_id;sensor_type;location;lat;lon;timestamp;P1;durP1;ratioP1;P2;durP2;ratioP2
55069;SDS011;40967;52.070;8.596;2022-12-22T00:01:32;2.10;;;1.30;;
55069;SDS011;40967;52.070;8.596;2022-12-22T00:04:16;1.90;;;1.10;;
55069;SDS011;40967;52.070;8.596;2022-12-22T00:07:00;2.08;;;1.17;;
55069;SDS011;40967;52.070;8.596;2022-12-22T00:09:44;2.03;;;1.13;;
55069;SDS011;40967;52.070;8.596;2022-12-22T00:12:28;1.90;;;1.10;;
55069;SDS011;40967;52.070;8.596;2022-12-22T00:15:13;1.73;;;1.10;;
55069;SDS011;40967;52.070;8.596;2022-12-22T00:17:58;1.77;;;1.10;;
55069;SDS011;40967;52.070;8.596;2022-12-22T00:20:44;2.83;;;1.30;;
55069;SDS011;40967;52.070;8.596;2022-12-22T00:23:28;1.45;;;0.95;;
55069;SDS011;40967;52.070;8.596;2022-12-22T00:26:12;1.65;;;0.90;;
55069;SDS011;40967;52.070;8.596;2022-12-22T00:28:56;1.90;;;1.00;;
55069;SDS011;40967;52.070;8.596;2022-12-22T00:31:41;1.50;;;0.90;;
55069;SDS011;40967;52.070;8.596;2022-12-22T00:34:26;1.55;;;1.08;;
55069;SDS011;40967;52.070;8.596;2022-12-22T00:37:12;1.40;;;1.00;;
55069;SDS011;40967;52.070;8.596;2022-12-22T00:39:57;1.05;;;0.70;;
55069;SDS011;40967;52.070;8.596;2022-12-22T00:42:41;1.23;;;0.88;;
55069;SDS011;40967;52.070;8.596;2022-12-22T00:45:25;1.58;;;0.93;;
55069;SDS011;40967;52.070;8.596;2022-12-22T00:48:15;1.45;;;0.90;;
55069;SDS011;40967;52.070;8.596;2022-12-22T00:51:03;1.52;;;1.00;;
55069;SDS011;40967;52.070;8.596;2022-12-22T00:53:48;2.25;;;0.93;;
55069;SDS011;40967;52.070;8.596;2022-12-22T00:56:32;1.17;;;0.80;;
55069;SDS011;40967;52.070;8.596;2022-12-22T00:59:16;1.70;;;0.93;;
55069;SDS011;40967;52.070;8.596;2022-12-22T01:02:00;1.60;;;0.90;;
55069;SDS011;40967;52.070;8.596;2022-12-22T01:04:43;1.60;;;0.90;;
55069;SDS011;40967;52.070;8.596;2022-12-22T01:07:27;1.30;;;0.80;;
55069;SDS011;40967;52.070;8.596;2022-12-22T01:10:12;0.87;;;0.60;;
55069;SDS011;40967;52.070;8.596;2022-12-22T01:12:57;1.27;;;0.85;;
55069;SDS011;40967;52.070;8.596;2022-12-22T01:15:45;1.10;;;0.80;;
55069;SDS011;40967;52.070;8.596;2022-12-22T01:18:32;1.15;;;0.70;;
55069;SDS011;40967;52.070;8.596;2022-12-22T01:21:16;0.80;;;0.60;;
55069;SDS011;40967;52.070;8.596;2022-12-22T01:24:01;1.27;;;0.82;;
55069;SDS011;40967;52.070;8.596;2022-12-22T01:26:47;1.08;;;0.60;;
55069;SDS011;40967;52.070;8.596;2022-12-22T01:29:31;0.70;;;0.50;;
55069;SDS011;40967;52.070;8.596;2022-12-22T01:32:15;0.80;;;0.60;;
55069;SDS011;40967;52.070;8.596;2022-12-22T01:34:59;1.00;;;0.60;;
55069;SDS011;40967;52.070;8.596;2022-12-22T01:37:43;1.20;;;0.70;;
55069;SDS011;40967;52.070;8.596;2022-12-22T01:40:27;0.80;;;0.50;;
55069;SDS011;40967;52.070;8.596;2022-12-22T01:43:19;1.00;;;0.60;;
55069;SDS011;40967;52.070;8.596;2022-12-22T01:49:22;0.82;;;0.55;;
55069;SDS011;40967;52.070;8.596;2022-12-22T01:52:11;0.87;;;0.50;;
55069;SDS011;40967;52.070;8.596;2022-12-22T01:55:00;1.00;;;0.60;;
55069;SDS011;40967;52.070;8.596;2022-12-22T01:57:49;0.70;;;0.50;;
55069;SDS011;40967;52.070;8.596;2022-12-22T02:00:33;0.90;;;0.57;;
55069;SDS011;40967;52.070;8.596;2022-12-22T02:03:17;0.70;;;0.50;;
55069;SDS011;40967;52.070;8.596;2022-12-22T02:09:07;1.10;;;0.65;;
55069;SDS011;40967;52.070;8.596;2022-12-22T02:12:24;0.73;;;0.60;;
55069;SDS011;40967;52.070;8.596;2022-12-22T02:15:41;1.38;;;0.70;;
55069;SDS011;40967;52.070;8.596;2022-12-22T02:18:33;1.40;;;0.88;;
55069;SDS011;40967;52.070;8.596;2022-12-22T02:21:25;1.10;;;0.70;;
55069;SDS011;40967;52.070;8.596;2022-12-22T02:27:14;1.33;;;0.82;;
55069;SDS011;40967;52.070;8.596;2022-12-22T02:30:01;1.60;;;1.00;;
55069;SDS011;40967;52.070;8.596;2022-12-22T02:32:49;1.40;;;0.90;;
55069;SDS011;40967;52.070;8.596;2022-12-22T02:35:42;1.58;;;0.90;;
55069;SDS011;40967;52.070;8.596;2022-12-22T02:38:48;1.50;;;0.90;;
55069;SDS011;40967;52.070;8.596;2022-12-22T02:41:57;1.10;;;0.70;;
55069;SDS011;40967;52.070;8.596;2022-12-22T02:45:35;0.82;;;0.70;;
55069;SDS011;40967;52.070;8.596;2022-12-22T02:48:19;0.95;;;0.60;;
55069;SDS011;40967;52.070;8.596;2022-12-22T02:51:10;1.05;;;0.60;;
55069;SDS011;40967;52.070;8.596;2022-12-22T02:54:00;1.17;;;0.77;;
55069;SDS011;40967;52.070;8.596;2022-12-22T02:56:46;1.02;;;0.60;;
55069;SDS011;40967;52.070;8.596;2022-12-22T02:59:30;1.00;;;0.70;;
55069;SDS011;40967;52.070;8.596;2022-12-22T03:02:14;0.90;;;0.63;;
55069;SDS011;40967;52.070;8.596;2022-12-22T03:04:58;0.70;;;0.50;;
55069;SDS011;40967;52.070;8.596;2022-12-22T03:07:42;1.02;;;0.70;;
55069;SDS011;40967;52.070;8.596;2022-12-22T03:10:26;0.65;;;0.50;;
55069;SDS011;40967;52.070;8.596;2022-12-22T03:13:10;0.70;;;0.50;;
55069;SDS011;40967;52.070;8.596;2022-12-22T03:15:54;0.77;;;0.60;;
55069;SDS011;40967;52.070;8.596;2022-12-22T03:18:38;0.93;;;0.52;;
55069;SDS011;40967;52.070;8.596;2022-12-22T03:21:22;0.95;;;0.60;;
55069;SDS011;40967;52.070;8.596;2022-12-22T03:24:06;1.02;;;0.80;;
55069;SDS011;40967;52.070;8.596;2022-12-22T03:26:50;1.25;;;0.80;;
55069;SDS011;40967;52.070;8.596;2022-12-22T03:29:15;1.25;;;0.90;;
55069;SDS011;40967;52.070;8.596;2022-12-22T03:31:41;1.60;;;1.00;;
55069;SDS011;40967;52.070;8.596;2022-12-22T03:34:06;0.97;;;0.70;;
55069;SDS011;40967;52.070;8.596;2022-12-22T03:36:31;1.30;;;0.80;;
55069;SDS011;40967;52.070;8.596;2022-12-22T03:38:57;1.40;;;0.80;;
55069;SDS011;40967;52.070;8.596;2022-12-22T03:41:22;1.27;;;0.80;;
55069;SDS011;40967;52.070;8.596;2022-12-22T03:44:07;1.40;;;0.80;;
55069;SDS011;40967;52.070;8.596;2022-12-22T03:46:50;0.88;;;0.70;;
55069;SDS011;40967;52.070;8.596;2022-12-22T03:49:16;1.57;;;0.90;;
55069;SDS011;40967;52.070;8.596;2022-12-22T03:51:47;1.80;;;1.00;;
55069;SDS011;40967;52.070;8.596;2022-12-22T03:54:16;1.47;;;0.90;;
55069;SDS011;40967;52.070;8.596;2022-12-22T03:56:43;1.50;;;1.00;;
55069;SDS011;40967;52.070;8.596;2022-12-22T03:59:09;1.58;;;1.08;;
55069;SDS011;40967;52.070;8.596;2022-12-22T04:01:39;1.30;;;0.80;;
55069;SDS011;40967;52.070;8.596;2022-12-22T04:04:06;1.17;;;0.80;;
55069;SDS011;40967;52.070;8.596;2022-12-22T04:06:32;1.50;;;0.90;;
55069;SDS011;40967;52.070;8.596;2022-12-22T04:08:57;1.35;;;0.90;;
55069;SDS011;40967;52.070;8.596;2022-12-22T04:11:23;1.57;;;0.97;;
55069;SDS011;40967;52.070;8.596;2022-12-22T04:14:07;1.42;;;0.93;;
55069;SDS011;40967;52.070;8.596;2022-12-22T04:16:32;0.90;;;0.80;;
55069;SDS011;40967;52.070;8.596;2022-12-22T04:18:57;1.27;;;0.77;;
55069;SDS011;40967;52.070;8.596;2022-12-22T04:21:23;1.23;;;0.80;;
55069;SDS011;40967;52.070;8.596;2022-12-22T04:23:49;1.10;;;0.80;;
55069;SDS011;40967;52.070;8.596;2022-12-22T04:26:16;1.10;;;0.80;;
55069;SDS011;40967;52.070;8.596;2022-12-22T04:28:42;1.10;;;0.73;;
55069;SDS011;40967;52.070;8.596;2022-12-22T04:31:07;1.00;;;0.70;;
55069;SDS011;40967;52.070;8.596;2022-12-22T04:33:34;1.03;;;0.70;;
55069;SDS011;40967;52.070;8.596;2022-12-22T04:36:00;1.20;;;0.80;;
55069;SDS011;40967;52.070;8.596;2022-12-22T04:38:25;1.10;;;0.70;;
55069;SDS011;40967;52.070;8.596;2022-12-22T04:40:51;1.10;;;0.63;;
55069;SDS011;40967;52.070;8.596;2022-12-22T04:43:16;1.40;;;0.77;;
55069;SDS011;40967;52.070;8.596;2022-12-22T04:45:42;1.23;;;0.73;;
55069;SDS011;40967;52.070;8.596;2022-12-22T04:48:08;0.88;;;0.68;;
55069;SDS011;40967;52.070;8.596;2022-12-22T04:50:33;1.30;;;0.60;;
55069;SDS011;40967;52.070;8.596;2022-12-22T04:52:59;1.07;;;0.70;;
55069;SDS011;40967;52.070;8.596;2022-12-22T04:55:24;1.30;;;0.70;;
55069;SDS011;40967;52.070;8.596;2022-12-22T04:57:50;1.10;;;0.70;;
55069;SDS011;40967;52.070;8.596;2022-12-22T05:00:15;1.17;;;0.70;;
55069;SDS011;40967;52.070;8.596;2022-12-22T05:02:44;1.10;;;0.70;;
55069;SDS011;40967;52.070;8.596;2022-12-22T05:05:21;1.13;;;0.70;;
55069;SDS011;40967;52.070;8.596;2022-12-22T05:07:55;0.98;;;0.68;;
55069;SDS011;40967;52.070;8.596;2022-12-22T05:10:21;0.90;;;0.70;;
55069;SDS011;40967;52.070;8.596;2022-12-22T05:12:46;1.07;;;0.70;;
55069;SDS011;40967;52.070;8.596;2022-12-22T05:15:48;1.00;;;0.70;;
55069;SDS011;40967;52.070;8.596;2022-12-22T05:18:19;1.13;;;0.80;;
55069;SDS011;40967;52.070;8.596;2022-12-22T05:20:45;1.15;;;0.80;;
55069;SDS011;40967;52.070;8.596;2022-12-22T05:23:20;1.13;;;0.75;;
55069;SDS011;40967;52.070;8.596;2022-12-22T05:25:45;1.40;;;0.80;;
55069;SDS011;40967;52.070;8.596;2022-12-22T05:28:10;1.10;;;0.80;;
55069;SDS011;40967;52.070;8.596;2022-12-22T05:30:36;1.10;;;0.70;;
55069;SDS011;40967;52.070;8.596;2022-12-22T05:33:01;1.33;;;0.80;;
55069;SDS011;40967;52.070;8.596;2022-12-22T05:35:27;1.00;;;0.70;;
55069;SDS011;40967;52.070;8.596;2022-12-22T05:37:55;0.80;;;0.60;;
55069;SDS011;40967;52.070;8.596;2022-12-22T05:40:20;1.42;;;0.90;;
55069;SDS011;40967;52.070;8.596;2022-12-22T05:42:45;1.60;;;0.90;;
55069;SDS011;40967;52.070;8.596;2022-12-22T05:45:12;1.40;;;0.90;;
55069;SDS011;40967;52.070;8.596;2022-12-22T05:47:40;1.50;;;1.00;;
55069;SDS011;40967;52.070;8.596;2022-12-22T05:50:08;1.60;;;1.05;;
55069;SDS011;40967;52.070;8.596;2022-12-22T05:52:35;1.90;;;1.07;;
55069;SDS011;40967;52.070;8.596;2022-12-22T05:55:00;1.80;;;1.10;;
55069;SDS011;40967;52.070;8.596;2022-12-22T05:57:26;1.70;;;1.10;;
55069;SDS011;40967;52.070;8.596;2022-12-22T05:59:52;1.87;;;1.30;;
55069;SDS011;40967;52.070;8.596;2022-12-22T06:02:17;2.20;;;1.40;;
55069;SDS011;40967;52.070;8.596;2022-12-22T06:04:43;2.10;;;1.30;;
55069;SDS011;40967;52.070;8.596;2022-12-22T06:07:09;2.60;;;1.38;;
55069;SDS011;40967;52.070;8.596;2022-12-22T06:09:37;2.60;;;1.50;;
55069;SDS011;40967;52.070;8.596;2022-12-22T06:12:07;2.80;;;1.60;;
55069;SDS011;40967;52.070;8.596;2022-12-22T06:14:33;2.78;;;1.58;;
55069;SDS011;40967;52.070;8.596;2022-12-22T06:16:59;3.40;;;1.90;;
55069;SDS011;40967;52.070;8.596;2022-12-22T06:19:24;3.97;;;2.38;;
55069;SDS011;40967;52.070;8.596;2022-12-22T06:21:50;3.80;;;2.07;;
55069;SDS011;40967;52.070;8.596;2022-12-22T06:24:23;3.63;;;2.30;;
55069;SDS011;40967;52.070;8.596;2022-12-22T06:26:49;3.30;;;2.17;;
55069;SDS011;40967;52.070;8.596;2022-12-22T06:29:15;3.78;;;2.00;;
55069;SDS011;40967;52.070;8.596;2022-12-22T06:31:40;3.23;;;1.83;;
55069;SDS011;40967;52.070;8.596;2022-12-22T06:34:07;2.93;;;1.90;;
55069;SDS011;40967;52.070;8.596;2022-12-22T06:36:33;3.30;;;2.07;;
55069;SDS011;40967;52.070;8.596;2022-12-22T06:38:59;3.08;;;1.80;;
55069;SDS011;40967;52.070;8.596;2022-12-22T06:41:25;3.08;;;1.77;;
55069;SDS011;40967;52.070;8.596;2022-12-22T06:44:09;2.97;;;1.65;;
55069;SDS011;40967;52.070;8.596;2022-12-22T06:46:34;3.27;;;1.77;;
55069;SDS011;40967;52.070;8.596;2022-12-22T06:48:59;2.67;;;1.55;;
55069;SDS011;40967;52.070;8.596;2022-12-22T06:51:25;2.70;;;1.60;;
55069;SDS011;40967;52.070;8.596;2022-12-22T06:53:50;2.83;;;1.53;;
55069;SDS011;40967;52.070;8.596;2022-12-22T06:56:16;2.70;;;1.40;;
55069;SDS011;40967;52.070;8.596;2022-12-22T06:58:41;2.83;;;1.63;;
55069;SDS011;40967;52.070;8.596;2022-12-22T07:01:06;3.20;;;1.60;;
55069;SDS011;40967;52.070;8.596;2022-12-22T07:03:32;3.13;;;1.83;;
55069;SDS011;40967;52.070;8.596;2022-12-22T07:05:57;2.73;;;1.50;;
55069;SDS011;40967;52.070;8.596;2022-12-22T07:08:22;3.30;;;1.60;;
55069;SDS011;40967;52.070;8.596;2022-12-22T07:10:48;3.10;;;1.60;;
55069;SDS011;40967;52.070;8.596;2022-12-22T07:13:23;2.80;;;1.70;;
55069;SDS011;40967;52.070;8.596;2022-12-22T07:15:51;3.42;;;1.80;;
55069;SDS011;40967;52.070;8.596;2022-12-22T07:18:17;2.95;;;1.70;;
55069;SDS011;40967;52.070;8.596;2022-12-22T07:20:45;3.45;;;1.80;;
55069;SDS011;40967;52.070;8.596;2022-12-22T07:23:11;2.77;;;1.50;;
55069;SDS011;40967;52.070;8.596;2022-12-22T07:25:36;2.92;;;1.63;;
55069;SDS011;40967;52.070;8.596;2022-12-22T07:30:51;2.55;;;1.55;;
55069;SDS011;40967;52.070;8.596;2022-12-22T07:33:18;3.00;;;1.70;;
55069;SDS011;40967;52.070;8.596;2022-12-22T07:35:46;3.22;;;1.80;;
55069;SDS011;40967;52.070;8.596;2022-12-22T07:38:11;2.50;;;1.45;;
55069;SDS011;40967;52.070;8.596;2022-12-22T07:40:37;3.10;;;1.70;;
55069;SDS011;40967;52.070;8.596;2022-12-22T07:43:02;2.80;;;1.53;;
55069;SDS011;40967;52.070;8.596;2022-12-22T07:45:28;2.93;;;1.60;;
55069;SDS011;40967;52.070;8.596;2022-12-22T07:47:59;3.35;;;1.88;;
55069;SDS011;40967;52.070;8.596;2022-12-22T07:50:26;2.70;;;1.60;;
55069;SDS011;40967;52.070;8.596;2022-12-22T07:52:53;3.22;;;1.80;;
55069;SDS011;40967;52.070;8.596;2022-12-22T07:55:19;3.07;;;1.67;;
55069;SDS011;40967;52.070;8.596;2022-12-22T07:57:46;3.00;;;1.50;;
55069;SDS011;40967;52.070;8.596;2022-12-22T08:00:21;2.97;;;1.58;;
55069;SDS011;40967;52.070;8.596;2022-12-22T08:02:49;3.15;;;1.70;;
55069;SDS011;40967;52.070;8.596;2022-12-22T08:05:15;3.35;;;1.83;;
55069;SDS011;40967;52.070;8.596;2022-12-22T08:07:41;2.67;;;1.50;;
55069;SDS011;40967;52.070;8.596;2022-12-22T08:10:06;3.33;;;1.80;;
55069;SDS011;40967;52.070;8.596;2022-12-22T08:12:32;2.70;;;1.60;;
55069;SDS011;40967;52.070;8.596;2022-12-22T08:14:58;2.92;;;1.67;;
55069;SDS011;40967;52.070;8.596;2022-12-22T08:17:27;2.90;;;1.73;;
55069;SDS011;40967;52.070;8.596;2022-12-22T08:19:53;3.72;;;2.10;;
55069;SDS011;40967;52.070;8.596;2022-12-22T08:22:19;3.90;;;2.03;;
55069;SDS011;40967;52.070;8.596;2022-12-22T08:24:48;3.05;;;1.83;;
55069;SDS011;40967;52.070;8.596;2022-12-22T08:27:15;3.03;;;1.80;;
55069;SDS011;40967;52.070;8.596;2022-12-22T08:29:44;3.33;;;1.90;;
55069;SDS011;40967;52.070;8.596;2022-12-22T08:32:12;3.17;;;1.90;;
55069;SDS011;40967;52.070;8.596;2022-12-22T08:34:38;3.47;;;2.00;;
55069;SDS011;40967;52.070;8.596;2022-12-22T08:37:04;2.97;;;1.77;;
55069;SDS011;40967;52.070;8.596;2022-12-22T08:39:36;3.08;;;1.85;;
55069;SDS011;40967;52.070;8.596;2022-12-22T08:42:04;3.00;;;1.80;;
55069;SDS011;40967;52.070;8.596;2022-12-22T08:44:32;3.53;;;1.83;;
55069;SDS011;40967;52.070;8.596;2022-12-22T08:46:58;3.13;;;1.90;;
55069;SDS011;40967;52.070;8.596;2022-12-22T08:49:24;3.10;;;1.73;;
55069;SDS011;40967;52.070;8.596;2022-12-22T08:51:50;3.75;;;2.00;;
55069;SDS011;40967;52.070;8.596;2022-12-22T08:54:19;3.00;;;1.77;;
55069;SDS011;40967;52.070;8.596;2022-12-22T08:56:44;3.47;;;1.90;;
55069;SDS011;40967;52.070;8.596;2022-12-22T08:59:10;3.22;;;1.73;;
55069;SDS011;40967;52.070;8.596;2022-12-22T09:01:37;3.63;;;1.83;;
55069;SDS011;40967;52.070;8.596;2022-12-22T09:04:05;3.00;;;1.70;;
55069;SDS011;40967;52.070;8.596;2022-12-22T09:06:33;3.00;;;1.60;;
55069;SDS011;40967;52.070;8.596;2022-12-22T09:09:00;3.55;;;1.90;;
55069;SDS011;40967;52.070;8.596;2022-12-22T09:11:28;2.90;;;1.50;;
55069;SDS011;40967;52.070;8.596;2022-12-22T09:13:54;2.90;;;1.50;;
55069;SDS011;40967;52.070;8.596;2022-12-22T09:16:22;3.30;;;1.70;;
55069;SDS011;40967;52.070;8.596;2022-12-22T09:18:49;2.63;;;1.50;;
55069;SDS011;40967;52.070;8.596;2022-12-22T09:21:15;3.22;;;1.83;;
55069;SDS011;40967;52.070;8.596;2022-12-22T09:23:43;3.13;;;1.60;;
55069;SDS011;40967;52.070;8.596;2022-12-22T09:26:10;3.77;;;2.00;;
55069;SDS011;40967;52.070;8.596;2022-12-22T09:28:40;3.10;;;1.55;;
55069;SDS011;40967;52.070;8.596;2022-12-22T09:31:05;3.20;;;1.60;;
55069;SDS011;40967;52.070;8.596;2022-12-22T09:33:32;3.53;;;1.85;;
55069;SDS011;40967;52.070;8.596;2022-12-22T09:36:11;3.37;;;1.70;;
55069;SDS011;40967;52.070;8.596;2022-12-22T09:38:39;3.50;;;1.83;;
55069;SDS011;40967;52.070;8.596;2022-12-22T09:41:15;3.25;;;1.70;;
55069;SDS011;40967;52.070;8.596;2022-12-22T09:43:47;3.22;;;1.70;;
55069;SDS011;40967;52.070;8.596;2022-12-22T09:46:22;3.38;;;1.70;;
55069;SDS011;40967;52.070;8.596;2022-12-22T09:48:53;2.85;;;1.58;;
55069;SDS011;40967;52.070;8.596;2022-12-22T09:51:19;3.10;;;1.67;;
55069;SDS011;40967;52.070;8.596;2022-12-22T09:53:47;3.45;;;1.90;;
55069;SDS011;40967;52.070;8.596;2022-12-22T09:56:17;3.03;;;1.70;;
55069;SDS011;40967;52.070;8.596;2022-12-22T09:58:43;3.80;;;1.92;;
55069;SDS011;40967;52.070;8.596;2022-12-22T10:06:49;6.85;;;2.85;;
55069;SDS011;40967;52.070;8.596;2022-12-22T10:09:37;6.68;;;3.40;;
55069;SDS011;40967;52.070;8.596;2022-12-22T10:12:04;6.50;;;3.33;;
55069;SDS011;40967;52.070;8.596;2022-12-22T10:14:34;6.28;;;3.42;;
55069;SDS011;40967;52.070;8.596;2022-12-22T10:17:27;7.35;;;4.00;;
55069;SDS011;40967;52.070;8.596;2022-12-22T10:20:05;6.50;;;3.28;;
55069;SDS011;40967;52.070;8.596;2022-12-22T10:23:03;7.22;;;3.67;;
55069;SDS011;40967;52.070;8.596;2022-12-22T10:28:40;9.15;;;4.88;;
55069;SDS011;40967;52.070;8.596;2022-12-22T10:33:39;12.13;;;6.97;;
55069;SDS011;40967;52.070;8.596;2022-12-22T10:36:06;10.63;;;6.00;;
55069;SDS011;40967;52.070;8.596;2022-12-22T10:38:33;8.18;;;4.60;;
55069;SDS011;40967;52.070;8.596;2022-12-22T10:43:54;7.43;;;4.18;;
55069;SDS011;40967;52.070;8.596;2022-12-22T10:49:08;9.18;;;4.40;;
55069;SDS011;40967;52.070;8.596;2022-12-22T10:51:37;7.53;;;4.60;;
55069;SDS011;40967;52.070;8.596;2022-12-22T10:54:04;8.10;;;4.03;;
55069;SDS011;40967;52.070;8.596;2022-12-22T10:56:31;6.95;;;3.63;;
55069;SDS011;40967;52.070;8.596;2022-12-22T11:01:29;4.82;;;2.75;;
55069;SDS011;40967;52.070;8.596;2022-12-22T11:04:13;4.68;;;2.45;;
55069;SDS011;40967;52.070;8.596;2022-12-22T11:06:42;5.07;;;2.67;;
55069;SDS011;40967;52.070;8.596;2022-12-22T11:09:09;4.60;;;2.33;;
55069;SDS011;40967;52.070;8.596;2022-12-22T11:11:36;4.93;;;2.58;;
55069;SDS011;40967;52.070;8.596;2022-12-22T11:19:59;4.80;;;2.63;;
55069;SDS011;40967;52.070;8.596;2022-12-22T11:22:54;4.65;;;2.40;;
55069;SDS011;40967;52.070;8.596;2022-12-22T11:25:47;4.65;;;2.40;;
55069;SDS011;40967;52.070;8.596;2022-12-22T11:37:16;5.72;;;3.00;;
55069;SDS011;40967;52.070;8.596;2022-12-22T11:42:20;5.95;;;3.40;;
55069;SDS011;40967;52.070;8.596;2022-12-22T11:50:55;5.72;;;3.25;;
55069;SDS011;40967;52.070;8.596;2022-12-22T12:05:10;9.68;;;5.15;;
55069;SDS011;40967;52.070;8.596;2022-12-22T12:16:00;10.90;;;5.82;;
55069;SDS011;40967;52.070;8.596;2022-12-22T12:18:52;14.45;;;8.50;;
55069;SDS011;40967;52.070;8.596;2022-12-22T12:30:17;12.70;;;7.80;;
55069;SDS011;40967;52.070;8.596;2022-12-22T12:33:03;12.03;;;7.30;;
55069;SDS011;40967;52.070;8.596;2022-12-22T12:41:00;12.70;;;7.53;;
55069;SDS011;40967;52.070;8.596;2022-12-22T12:43:50;14.38;;;8.57;;
55069;SDS011;40967;52.070;8.596;2022-12-22T12:46:42;11.68;;;7.05;;
55069;SDS011;40967;52.070;8.596;2022-12-22T12:51:58;10.48;;;5.95;;
55069;SDS011;40967;52.070;8.596;2022-12-22T13:21:35;11.47;;;6.40;;
55069;SDS011;40967;52.070;8.596;2022-12-22T13:26:20;12.60;;;6.40;;
55069;SDS011;40967;52.070;8.596;2022-12-22T13:28:55;9.32;;;5.35;;
55069;SDS011;40967;52.070;8.596;2022-12-22T13:31:42;10.40;;;5.95;;
55069;SDS011;40967;52.070;8.596;2022-12-22T13:36:47;8.18;;;4.93;;
55069;SDS011;40967;52.070;8.596;2022-12-22T13:39:15;6.60;;;3.67;;
55069;SDS011;40967;52.070;8.596;2022-12-22T13:41:43;9.13;;;4.97;;
55069;SDS011;40967;52.070;8.596;2022-12-22T13:44:17;8.48;;;5.00;;
55069;SDS011;40967;52.070;8.596;2022-12-22T13:46:49;12.52;;;7.07;;
55069;SDS011;40967;52.070;8.596;2022-12-22T13:49:15;10.30;;;6.70;;
55069;SDS011;40967;52.070;8.596;2022-12-22T13:51:43;12.60;;;7.70;;
55069;SDS011;40967;52.070;8.596;2022-12-22T13:54:12;12.95;;;7.05;;
55069;SDS011;40967;52.070;8.596;2022-12-22T13:56:43;12.48;;;8.10;;
55069;SDS011;40967;52.070;8.596;2022-12-22T14:02:16;10.82;;;7.07;;
55069;SDS011;40967;52.070;8.596;2022-12-22T14:07:37;9.00;;;5.22;;
55069;SDS011;40967;52.070;8.596;2022-12-22T14:10:02;10.13;;;5.50;;
55069;SDS011;40967;52.070;8.596;2022-12-22T14:12:30;7.90;;;4.90;;
55069;SDS011;40967;52.070;8.596;2022-12-22T14:15:02;9.88;;;5.40;;
55069;SDS011;40967;52.070;8.596;2022-12-22T14:17:50;6.57;;;3.80;;
55069;SDS011;40967;52.070;8.596;2022-12-22T14:23:04;7.43;;;4.30;;
55069;SDS011;40967;52.070;8.596;2022-12-22T14:25:36;6.63;;;3.60;;
55069;SDS011;40967;52.070;8.596;2022-12-22T14:28:05;7.15;;;3.83;;
55069;SDS011;40967;52.070;8.596;2022-12-22T14:30:41;6.90;;;4.13;;
55069;SDS011;40967;52.070;8.596;2022-12-22T14:35:40;7.65;;;4.55;;
55069;SDS011;40967;52.070;8.596;2022-12-22T14:38:13;6.07;;;3.73;;
55069;SDS011;40967;52.070;8.596;2022-12-22T14:40:43;8.23;;;4.43;;
55069;SDS011;40967;52.070;8.596;2022-12-22T14:45:43;8.65;;;4.97;;
55069;SDS011;40967;52.070;8.596;2022-12-22T14:48:14;7.85;;;4.10;;
55069;SDS011;40967;52.070;8.596;2022-12-22T14:50:49;7.70;;;4.43;;
55069;SDS011;40967;52.070;8.596;2022-12-22T14:53:24;6.90;;;4.13;;
55069;SDS011;40967;52.070;8.596;2022-12-22T14:55:53;7.47;;;4.07;;
55069;SDS011;40967;52.070;8.596;2022-12-22T14:58:26;6.43;;;3.70;;
55069;SDS011;40967;52.070;8.596;2022-12-22T15:01:17;7.40;;;3.95;;
55069;SDS011;40967;52.070;8.596;2022-12-22T15:04:04;6.80;;;3.67;;
55069;SDS011;40967;52.070;8.596;2022-12-22T15:06:42;9.25;;;5.00;;
55069;SDS011;40967;52.070;8.596;2022-12-22T15:14:25;8.00;;;4.45;;
55069;SDS011;40967;52.070;8.596;2022-12-22T15:17:21;6.90;;;4.15;;
55069;SDS011;40967;52.070;8.596;2022-12-22T15:19:49;8.23;;;4.85;;
55069;SDS011;40967;52.070;8.596;2022-12-22T15:22:16;7.75;;;4.40;;
55069;SDS011;40967;52.070;8.596;2022-12-22T15:24:41;6.47;;;3.78;;
55069;SDS011;40967;52.070;8.596;2022-12-22T15:27:06;6.73;;;3.57;;
55069;SDS011;40967;52.070;8.596;2022-12-22T15:29:32;5.60;;;3.27;;
55069;SDS011;40967;52.070;8.596;2022-12-22T15:31:57;6.37;;;3.47;;
55069;SDS011;40967;52.070;8.596;2022-12-22T15:34:23;9.52;;;5.60;;
55069;SDS011;40967;52.070;8.596;2022-12-22T15:36:52;8.23;;;4.63;;
55069;SDS011;40967;52.070;8.596;2022-12-22T15:39:19;7.37;;;4.30;;
55069;SDS011;40967;52.070;8.596;2022-12-22T15:41:46;7.75;;;4.40;;
55069;SDS011;40967;52.070;8.596;2022-12-22T15:44:12;7.45;;;4.10;;
55069;SDS011;40967;52.070;8.596;2022-12-22T15:46:38;6.28;;;3.47;;
55069;SDS011;40967;52.070;8.596;2022-12-22T15:49:13;6.45;;;3.55;;
55069;SDS011;40967;52.070;8.596;2022-12-22T15:51:42;6.93;;;3.80;;
55069;SDS011;40967;52.070;8.596;2022-12-22T15:54:13;6.85;;;3.80;;
55069;SDS011;40967;52.070;8.596;2022-12-22T15:56:39;7.32;;;3.75;;
55069;SDS011;40967;52.070;8.596;2022-12-22T15:59:08;6.13;;;3.27;;
55069;SDS011;40967;52.070;8.596;2022-12-22T16:01:49;7.07;;;3.63;;
55069;SDS011;40967;52.070;8.596;2022-12-22T16:04:24;6.32;;;3.30;;
55069;SDS011;40967;52.070;8.596;2022-12-22T16:06:52;10.48;;;4.63;;
55069;SDS011;40967;52.070;8.596;2022-12-22T16:09:22;7.05;;;3.80;;
55069;SDS011;40967;52.070;8.596;2022-12-22T16:11:51;6.28;;;3.40;;
55069;SDS011;40967;52.070;8.596;2022-12-22T16:14:16;6.90;;;3.50;;
55069;SDS011;40967;52.070;8.596;2022-12-22T16:16:45;8.40;;;4.28;;
55069;SDS011;40967;52.070;8.596;2022-12-22T16:19:13;6.40;;;3.47;;
55069;SDS011;40967;52.070;8.596;2022-12-22T16:21:39;5.68;;;3.10;;
55069;SDS011;40967;52.070;8.596;2022-12-22T16:24:07;5.87;;;3.00;;
55069;SDS011;40967;52.070;8.596;2022-12-22T16:26:55;6.32;;;3.75;;
55069;SDS011;40967;52.070;8.596;2022-12-22T16:29:25;7.03;;;3.60;;
55069;SDS011;40967;52.070;8.596;2022-12-22T16:31:50;7.28;;;3.88;;
55069;SDS011;40967;52.070;8.596;2022-12-22T16:34:16;6.30;;;3.72;;
55069;SDS011;40967;52.070;8.596;2022-12-22T16:36:42;6.67;;;3.60;;
55069;SDS011;40967;52.070;8.596;2022-12-22T16:39:07;6.50;;;3.60;;
55069;SDS011;40967;52.070;8.596;2022-12-22T16:41:32;6.38;;;3.42;;
55069;SDS011;40967;52.070;8.596;2022-12-22T16:43:58;5.23;;;2.97;;
55069;SDS011;40967;52.070;8.596;2022-12-22T16:46:24;7.07;;;3.50;;
55069;SDS011;40967;52.070;8.596;2022-12-22T16:48:52;6.05;;;3.40;;
55069;SDS011;40967;52.070;8.596;2022-12-22T16:51:23;6.30;;;3.47;;
55069;SDS011;40967;52.070;8.596;2022-12-22T16:53:50;6.32;;;3.28;;
55069;SDS011;40967;52.070;8.596;2022-12-22T16:56:18;6.07;;;3.40;;
55069;SDS011;40967;52.070;8.596;2022-12-22T16:58:59;5.88;;;3.10;;
55069;SDS011;40967;52.070;8.596;2022-12-22T17:04:08;5.93;;;3.13;;
55069;SDS011;40967;52.070;8.596;2022-12-22T17:06:36;7.25;;;4.30;;
55069;SDS011;40967;52.070;8.596;2022-12-22T17:09:02;9.17;;;5.17;;
55069;SDS011;40967;52.070;8.596;2022-12-22T17:11:30;9.45;;;5.75;;
55069;SDS011;40967;52.070;8.596;2022-12-22T17:14:02;9.25;;;5.80;;
55069;SDS011;40967;52.070;8.596;2022-12-22T17:16:30;8.85;;;5.60;;
55069;SDS011;40967;52.070;8.596;2022-12-22T17:18:56;10.03;;;5.77;;
55069;SDS011;40967;52.070;8.596;2022-12-22T17:21:21;9.73;;;5.80;;
55069;SDS011;40967;52.070;8.596;2022-12-22T17:23:53;10.10;;;5.97;;
55069;SDS011;40967;52.070;8.596;2022-12-22T17:26:19;9.98;;;6.20;;
55069;SDS011;40967;52.070;8.596;2022-12-22T17:28:49;10.43;;;6.23;;
55069;SDS011;40967;52.070;8.596;2022-12-22T17:31:16;10.53;;;6.60;;
55069;SDS011;40967;52.070;8.596;2022-12-22T17:33:43;10.50;;;6.65;;
55069;SDS011;40967;52.070;8.596;2022-12-22T17:36:42;12.37;;;7.50;;
55069;SDS011;40967;52.070;8.596;2022-12-22T17:39:07;11.43;;;7.00;;
55069;SDS011;40967;52.070;8.596;2022-12-22T17:41:37;11.02;;;6.88;;
55069;SDS011;40967;52.070;8.596;2022-12-22T17:44:02;10.07;;;6.37;;
55069;SDS011;40967;52.070;8.596;2022-12-22T17:46:27;9.02;;;5.95;;